Terminal Aerodrome Forecast
Issued by NWS Corpus Christi, TX

Home | Current Version | Previous Version | Text Only | Print | Product List | Glossary On
Versions: 1 2 3 4 5 6 7 8 9 10 11 12
000
FTUS44 KCRP 251736
TAFVCT
TAF
KVCT 251736Z 2518/2618 13006KT P6SM VCSH BKN045 BKN060
     FM251930 14012KT P6SM VCTS BKN045CB
     FM260300 17004KT P6SM SCT030
     FM261000 VRB05KT P6SM VCTS SCT020CB BKN050
      TEMPO 2610/2614 TSRA OVC020CB
     FM261400 16006KT P6SM VCTS SCT020CB BKN050
      TEMPO 2614/2618 TSRA OVC020CB=

USA.gov is the U.S. government's official web portal to all federal, state and local government web resources and services.